createdAt,value
2022-07-25T00:02:03.658Z,4.25
2022-07-25T00:04:35.063Z,3.75
2022-07-25T00:07:03.916Z,3.50
2022-07-25T00:09:31.659Z,2.75
2022-07-25T00:11:59.516Z,3.03
2022-07-25T00:14:27.344Z,2.80
2022-07-25T00:16:56.586Z,2.85
2022-07-25T00:19:24.356Z,2.53
2022-07-25T00:21:52.255Z,2.38
2022-07-25T00:24:20.132Z,3.13
2022-07-25T00:26:47.901Z,3.05
2022-07-25T00:29:15.707Z,3.28
2022-07-25T00:31:43.520Z,2.53
2022-07-25T00:34:12.704Z,3.00
2022-07-25T00:36:40.504Z,2.92
2022-07-25T00:39:08.269Z,3.55
2022-07-25T00:41:36.479Z,4.32
2022-07-25T00:44:04.690Z,2.95
2022-07-25T00:46:32.777Z,4.40
2022-07-25T00:49:00.645Z,3.30
2022-07-25T00:51:29.880Z,3.60
2022-07-25T00:53:58.648Z,7.05
2022-07-25T00:56:26.532Z,5.45
2022-07-25T00:58:54.351Z,3.95
2022-07-25T01:01:22.229Z,3.90
2022-07-25T01:03:50.032Z,3.70
2022-07-25T01:06:18.193Z,4.63
2022-07-25T01:08:48.047Z,3.95
2022-07-25T01:11:16.129Z,3.50
2022-07-25T01:13:43.912Z,3.78
2022-07-25T01:16:11.779Z,5.03
2022-07-25T01:18:39.607Z,3.42
2022-07-25T01:21:08.942Z,3.75
2022-07-25T01:23:36.878Z,3.85
2022-07-25T01:26:04.784Z,4.50
2022-07-25T01:28:32.578Z,4.97
2022-07-25T01:31:00.765Z,3.67
2022-07-25T01:33:28.633Z,5.07
2022-07-25T01:35:56.208Z,4.95
2022-07-25T01:38:25.456Z,3.95
2022-07-25T01:40:53.231Z,5.18
2022-07-25T01:43:21.065Z,3.97
2022-07-25T01:45:48.884Z,4.50
2022-07-25T01:48:16.917Z,3.58
2022-07-25T01:50:44.880Z,3.95
2022-07-25T01:53:12.730Z,4.25
2022-07-25T01:55:41.914Z,3.83
2022-07-25T01:58:10.929Z,4.72
2022-07-25T02:00:39.978Z,4.30
2022-07-25T02:03:25.295Z,3.42
2022-07-25T02:05:53.092Z,3.72
2022-07-25T02:08:20.804Z,4.53
2022-07-25T02:10:50.061Z,3.20
2022-07-25T02:13:17.897Z,3.83
2022-07-25T02:15:45.685Z,3.42
2022-07-25T02:18:13.602Z,4.68
2022-07-25T02:20:41.413Z,4.30
2022-07-25T02:23:09.260Z,3.67
2022-07-25T02:25:36.996Z,4.80
2022-07-25T02:28:06.402Z,4.97
2022-07-25T02:30:34.228Z,3.60
2022-07-25T02:33:01.976Z,3.60
2022-07-25T02:35:29.733Z,4.13
2022-07-25T02:37:57.504Z,2.90
2022-07-25T02:40:25.360Z,4.40
2022-07-25T02:42:53.217Z,4.60
2022-07-25T02:45:22.813Z,4.43
2022-07-25T02:47:50.758Z,3.75
2022-07-25T02:50:18.840Z,4.75
2022-07-25T02:52:46.636Z,3.47
2022-07-25T02:55:14.421Z,4.07
2022-07-25T02:57:42.246Z,5.70
2022-07-25T03:00:11.306Z,5.47
2022-07-25T03:02:40.453Z,4.53
2022-07-25T03:05:09.524Z,4.00
2022-07-25T03:07:38.346Z,3.85
2022-07-25T03:10:11.256Z,3.78
2022-07-25T03:12:40.078Z,4.97
2022-07-25T03:15:08.967Z,5.70
2022-07-25T03:17:37.075Z,3.40
2022-07-25T03:20:08.270Z,4.45
2022-07-25T03:22:36.989Z,5.72
2022-07-25T03:25:05.517Z,5.50
2022-07-25T03:27:43.149Z,3.75
2022-07-25T03:30:12.190Z,3.47
2022-07-25T03:32:39.934Z,5.15
2022-07-25T03:35:10.266Z,4.28
2022-07-25T03:37:38.009Z,4.18
2022-07-25T03:40:06.827Z,4.75
2022-07-25T03:42:35.343Z,4.65
2022-07-25T03:45:03.501Z,4.60
2022-07-25T03:47:31.295Z,3.70
2022-07-25T03:49:59.041Z,3.45
2022-07-25T03:52:28.165Z,3.22
2022-07-25T03:54:55.898Z,3.47
2022-07-25T03:57:23.659Z,3.85
2022-07-25T03:59:51.371Z,3.25
2022-07-25T04:02:19.164Z,4.63
2022-07-25T04:04:47.008Z,4.20
2022-07-25T04:07:14.766Z,5.10
2022-07-25T04:09:43.893Z,5.07
2022-07-25T04:12:11.971Z,4.47
2022-07-25T04:14:39.753Z,4.10
2022-07-25T04:17:07.598Z,7.22
2022-07-25T04:19:37.044Z,7.18
2022-07-25T04:22:04.838Z,3.63
2022-07-25T04:24:32.606Z,3.80
2022-07-25T04:27:01.902Z,4.15
2022-07-25T04:29:30.064Z,5.18
2022-07-25T04:31:58.147Z,6.20
2022-07-25T04:34:26.215Z,5.18
2022-07-25T04:36:53.941Z,6.50
2022-07-25T04:39:21.709Z,3.97
2022-07-25T04:41:49.603Z,5.55
2022-07-25T04:44:18.722Z,4.53
2022-07-25T04:46:46.465Z,3.85
2022-07-25T04:49:14.589Z,3.20
2022-07-25T04:51:42.413Z,3.92
2022-07-25T04:54:10.495Z,3.15
2022-07-25T04:56:38.429Z,2.83
2022-07-25T04:59:07.203Z,3.58
2022-07-25T05:01:36.706Z,3.47
2022-07-25T05:04:04.861Z,2.78
2022-07-25T05:06:33.180Z,2.92
2022-07-25T05:09:00.978Z,3.05
2022-07-25T05:11:28.818Z,5.03
2022-07-25T05:13:56.641Z,2.53
2022-07-25T05:16:24.510Z,2.95
2022-07-25T05:18:53.724Z,2.72
2022-07-25T05:21:21.515Z,3.65
2022-07-25T05:23:49.230Z,2.38
2022-07-25T05:26:17.098Z,3.20
2022-07-25T05:28:44.840Z,4.00
2022-07-25T05:31:12.848Z,3.95
2022-07-25T05:33:41.011Z,2.70
2022-07-25T05:36:10.454Z,3.03
2022-07-25T05:38:38.234Z,2.72
2022-07-25T05:41:06.188Z,3.92
2022-07-25T05:43:34.382Z,2.72
2022-07-25T05:46:03.293Z,3.38
2022-07-25T05:48:31.357Z,2.92
2022-07-25T05:51:00.143Z,4.50
2022-07-25T05:53:29.399Z,2.90
2022-07-25T05:55:57.213Z,3.08
2022-07-25T05:58:29.483Z,2.55
2022-07-25T06:00:58.191Z,2.55
2022-07-25T06:03:26.151Z,2.63
2022-07-25T06:05:55.714Z,4.40
2022-07-25T06:08:23.962Z,3.25
2022-07-25T06:10:54.109Z,4.68
2022-07-25T06:13:23.583Z,3.47
2022-07-25T06:15:51.661Z,3.65
2022-07-25T06:18:19.542Z,5.55
2022-07-25T06:20:47.302Z,4.03
2022-07-25T06:23:15.190Z,3.85
2022-07-25T06:25:42.977Z,4.05
2022-07-25T06:28:19.288Z,4.70
2022-07-25T06:30:48.167Z,3.95
2022-07-25T06:33:15.999Z,6.18
2022-07-25T06:35:43.822Z,5.53
2022-07-25T06:38:11.651Z,5.53
2022-07-25T06:40:39.372Z,5.43
2022-07-25T06:43:07.172Z,5.03
2022-07-25T06:45:36.551Z,5.35
2022-07-25T06:48:04.701Z,5.65
2022-07-25T06:50:32.470Z,6.35
2022-07-25T06:53:00.264Z,6.40
2022-07-25T06:55:28.020Z,5.40
2022-07-25T06:57:55.943Z,8.38
2022-07-25T07:00:23.774Z,8.68
2022-07-25T07:02:56.884Z,6.03
2022-07-25T07:05:28.078Z,6.35
2022-07-25T07:07:56.035Z,4.00
2022-07-25T07:10:24.451Z,5.78
2022-07-25T07:12:52.547Z,9.43
2022-07-25T07:15:20.320Z,5.65
2022-07-25T07:17:48.084Z,9.35
2022-07-25T07:20:17.224Z,8.10
2022-07-25T07:22:46.072Z,8.77
2022-07-25T07:25:15.681Z,8.45
2022-07-25T07:27:44.017Z,7.82
2022-07-25T07:30:14.803Z,6.95
2022-07-25T07:32:42.692Z,6.80
2022-07-25T07:35:11.214Z,5.53
2022-07-25T07:37:43.597Z,7.20
2022-07-25T07:40:16.823Z,6.68
2022-07-25T07:42:50.212Z,8.55
2022-07-25T07:45:19.728Z,7.40
2022-07-25T07:47:48.662Z,6.70
2022-07-25T07:50:18.037Z,7.25
2022-07-25T07:52:47.846Z,6.90
2022-07-25T07:55:33.762Z,7.10
2022-07-25T07:58:01.934Z,6.20
2022-07-25T08:00:30.996Z,7.90
2022-07-25T08:03:00.524Z,9.15
2022-07-25T08:05:30.173Z,9.63
2022-07-25T08:08:00.572Z,8.20
2022-07-25T08:10:30.331Z,7.10
2022-07-25T08:12:59.157Z,12.57
2022-07-25T08:15:27.474Z,7.53
2022-07-25T08:17:55.427Z,6.47
2022-07-25T08:20:39.495Z,8.05
2022-07-25T08:23:11.007Z,8.52
2022-07-25T08:25:39.222Z,9.00
2022-07-25T08:28:07.712Z,5.88
2022-07-25T08:30:36.410Z,6.13
2022-07-25T08:33:06.681Z,10.60
2022-07-25T08:35:35.901Z,7.07
2022-07-25T08:38:05.649Z,7.97
2022-07-25T08:40:35.414Z,7.63
2022-07-25T08:43:03.244Z,7.65
2022-07-25T08:45:31.083Z,6.30
2022-07-25T08:47:58.828Z,8.27
2022-07-25T08:50:28.672Z,6.53
2022-07-25T08:53:16.536Z,5.63
2022-07-25T08:55:46.687Z,8.93
2022-07-25T08:58:16.102Z,6.40
2022-07-25T09:00:44.899Z,10.50
2022-07-25T09:03:13.313Z,8.70
2022-07-25T09:05:41.462Z,8.02
2022-07-25T09:08:11.087Z,6.18
2022-07-25T09:10:40.720Z,7.53
2022-07-25T09:13:14.199Z,8.95
2022-07-25T09:15:45.504Z,10.30
2022-07-25T09:18:17.042Z,9.50
2022-07-25T09:20:47.161Z,9.27
2022-07-25T09:23:16.702Z,9.20
2022-07-25T09:25:44.435Z,8.55
2022-07-25T09:28:15.766Z,8.70
2022-07-25T09:30:55.863Z,7.72
2022-07-25T09:33:25.295Z,7.25
2022-07-25T09:35:54.520Z,9.23
2022-07-25T09:38:25.357Z,10.57
2022-07-25T09:40:57.969Z,8.80
2022-07-25T09:43:37.403Z,7.55
2022-07-25T09:46:05.949Z,9.23
2022-07-25T09:48:34.355Z,7.05
2022-07-25T09:51:02.402Z,9.43
2022-07-25T09:53:30.323Z,8.77
2022-07-25T09:55:58.115Z,8.05
2022-07-25T09:58:28.939Z,9.90
2022-07-25T10:01:03.203Z,9.67
2022-07-25T10:03:48.995Z,9.55
2022-07-25T10:06:22.919Z,9.63
2022-07-25T10:08:52.172Z,7.13
2022-07-25T10:11:22.020Z,8.48
2022-07-25T10:13:51.213Z,8.73
2022-07-25T10:16:20.750Z,8.15
2022-07-25T10:18:50.760Z,12.02
2022-07-25T10:21:28.231Z,8.60
2022-07-25T10:24:01.026Z,10.88
2022-07-25T10:26:29.026Z,7.50
2022-07-25T10:28:59.533Z,10.20
2022-07-25T10:31:35.654Z,12.52
2022-07-25T10:34:05.536Z,10.20
2022-07-25T10:36:43.758Z,11.93
2022-07-25T10:39:13.548Z,8.93
2022-07-25T10:41:42.950Z,8.50
2022-07-25T10:44:15.110Z,12.30
2022-07-25T10:46:44.969Z,7.57
2022-07-25T10:49:19.729Z,8.38
2022-07-25T10:51:56.297Z,11.05
2022-07-25T10:54:24.402Z,10.23
2022-07-25T10:56:54.738Z,8.80
2022-07-25T10:59:32.618Z,8.38
2022-07-25T11:02:01.556Z,9.27
2022-07-25T11:04:30.048Z,9.57
2022-07-25T11:06:58.657Z,8.70
2022-07-25T11:09:28.469Z,11.60
2022-07-25T11:11:58.866Z,9.32
2022-07-25T11:14:32.814Z,11.10
2022-07-25T11:17:12.347Z,10.57
2022-07-25T11:19:40.895Z,11.15
2022-07-25T11:22:09.185Z,10.30
2022-07-25T11:24:37.860Z,9.68
2022-07-25T11:27:11.323Z,11.80
2022-07-25T11:29:42.273Z,10.32
2022-07-25T11:32:11.761Z,7.82
2022-07-25T11:34:43.054Z,13.00
2022-07-25T11:37:13.043Z,6.88
2022-07-25T11:42:13.135Z,13.48
2022-07-25T11:44:47.825Z,10.10
2022-07-25T11:47:27.549Z,11.70
2022-07-25T11:49:57.243Z,10.32
2022-07-25T11:52:29.765Z,12.88
2022-07-25T11:54:59.910Z,8.52
2022-07-25T11:57:29.821Z,12.38
2022-07-25T12:00:00.330Z,12.63
2022-07-25T12:02:31.169Z,12.13
2022-07-25T12:05:01.085Z,11.15
2022-07-25T12:07:40.128Z,9.85
2022-07-25T12:10:09.946Z,9.43
2022-07-25T12:12:49.614Z,12.07
2022-07-25T12:15:22.655Z,13.35
2022-07-25T12:17:51.631Z,11.10
2022-07-25T12:20:20.832Z,14.30
2022-07-25T12:22:50.306Z,13.40
2022-07-25T12:25:18.562Z,10.27
2022-07-25T12:27:46.551Z,11.40
2022-07-25T12:30:15.258Z,11.18
2022-07-25T12:32:45.127Z,12.63
2022-07-25T12:35:14.712Z,9.50
2022-07-25T12:37:43.279Z,7.18
2022-07-25T12:40:13.071Z,15.75
2022-07-25T12:42:40.950Z,10.88
2022-07-25T12:45:09.390Z,12.43
2022-07-25T12:47:37.606Z,10.75
2022-07-25T12:50:07.935Z,12.52
2022-07-25T12:52:36.210Z,10.73
2022-07-25T12:55:04.138Z,15.52
2022-07-25T12:57:32.149Z,12.48
2022-07-25T12:59:59.925Z,10.82
2022-07-25T13:02:27.739Z,8.82
2022-07-25T13:04:55.540Z,11.02
2022-07-25T13:07:24.705Z,10.00
2022-07-25T13:09:52.466Z,11.10
2022-07-25T13:12:20.682Z,10.60
2022-07-25T13:14:49.028Z,10.93
2022-07-25T13:17:16.772Z,12.30
2022-07-25T13:19:44.503Z,13.38
2022-07-25T13:22:12.709Z,9.80
2022-07-25T13:24:41.784Z,11.48
2022-07-25T13:27:09.741Z,8.90
2022-07-25T13:29:37.603Z,9.63
2022-07-25T13:32:06.331Z,9.27
2022-07-25T13:34:34.150Z,7.80
2022-07-25T13:37:01.938Z,6.72
2022-07-25T13:39:29.677Z,7.97
2022-07-25T13:41:58.705Z,7.45
2022-07-25T13:44:26.411Z,15.60
2022-07-25T13:46:54.186Z,9.88
2022-07-25T13:49:21.989Z,8.13
2022-07-25T13:51:49.745Z,9.98
2022-07-25T13:54:17.695Z,8.73
2022-07-25T13:56:45.445Z,14.40
2022-07-25T13:59:20.426Z,12.80
2022-07-25T14:01:49.283Z,8.35
2022-07-25T14:04:17.139Z,11.27
2022-07-25T14:06:45.221Z,9.35
2022-07-25T14:09:12.975Z,10.27
2022-07-25T14:11:40.720Z,10.30
2022-07-25T14:14:08.454Z,12.40
2022-07-25T14:16:40.209Z,11.65
2022-07-25T14:19:09.310Z,10.80
2022-07-25T14:21:37.950Z,9.27
2022-07-25T14:24:06.342Z,9.63
2022-07-25T14:26:34.775Z,10.27
2022-07-25T14:29:03.389Z,12.98
2022-07-25T14:31:32.160Z,9.43
2022-07-25T14:34:01.340Z,10.32
2022-07-25T14:36:29.059Z,9.05
2022-07-25T14:38:56.906Z,10.07
2022-07-25T14:41:24.683Z,7.05
2022-07-25T14:43:52.691Z,10.63
2022-07-25T14:46:21.016Z,10.25
2022-07-25T14:48:49.020Z,8.95
2022-07-25T14:51:19.891Z,11.10
2022-07-25T14:53:51.347Z,12.03
2022-07-25T14:56:21.016Z,12.93
2022-07-25T14:58:48.784Z,11.18
2022-07-25T15:01:18.764Z,12.07
2022-07-25T15:03:46.782Z,10.48
2022-07-25T15:06:14.618Z,14.75
2022-07-25T15:08:44.726Z,10.48
2022-07-25T15:11:12.612Z,14.15
2022-07-25T15:13:40.385Z,13.85
2022-07-25T15:16:08.513Z,12.95
2022-07-25T15:18:58.480Z,16.25
2022-07-25T15:21:25.202Z,15.57
2022-07-25T15:23:54.383Z,11.32
2022-07-25T15:26:22.233Z,17.58
2022-07-25T15:28:50.233Z,13.02
2022-07-25T15:31:18.126Z,11.40
2022-07-25T15:33:45.889Z,13.02
2022-07-25T15:36:13.683Z,15.65
2022-07-25T15:38:42.005Z,16.35
2022-07-25T15:41:11.899Z,10.35
2022-07-25T15:43:39.961Z,13.80
2022-07-25T15:46:12.856Z,12.35
2022-07-25T15:48:41.056Z,16.85
2022-07-25T15:51:08.873Z,13.95
2022-07-25T15:53:36.654Z,19.00
2022-07-25T15:56:04.726Z,13.02
2022-07-25T15:58:33.853Z,14.32
2022-07-25T16:01:01.854Z,19.08
2022-07-25T16:03:29.831Z,16.77
2022-07-25T16:05:57.626Z,14.40
2022-07-25T16:08:25.508Z,10.80
2022-07-25T16:10:53.302Z,20.42
2022-07-25T16:13:21.124Z,18.52
2022-07-25T16:15:50.279Z,19.92
2022-07-25T16:18:18.270Z,12.50
2022-07-25T16:20:46.049Z,15.25
2022-07-25T16:23:13.854Z,15.93
2022-07-25T16:25:41.633Z,18.75
2022-07-25T16:28:09.419Z,12.73
2022-07-25T16:30:37.209Z,14.57
2022-07-25T16:33:06.435Z,12.60
2022-07-25T16:35:34.416Z,17.80
2022-07-25T16:38:02.492Z,16.92
2022-07-25T16:40:31.260Z,12.65
2022-07-25T16:42:59.661Z,14.15
2022-07-25T16:45:28.209Z,15.25
2022-07-25T16:47:56.275Z,15.73
2022-07-25T16:50:25.469Z,17.75
2022-07-25T16:52:53.655Z,16.88
2022-07-25T16:55:21.723Z,15.02
2022-07-25T16:57:49.557Z,14.65
2022-07-25T17:00:17.727Z,14.80
2022-07-25T17:02:46.674Z,15.82
2022-07-25T17:05:14.638Z,12.80
2022-07-25T17:07:43.861Z,14.32
2022-07-25T17:10:11.865Z,14.75
2022-07-25T17:12:39.683Z,14.23
2022-07-25T17:15:09.118Z,16.70
2022-07-25T17:17:36.954Z,15.65
2022-07-25T17:20:05.790Z,16.88
2022-07-25T17:22:33.523Z,15.85
2022-07-25T17:25:02.761Z,19.10
2022-07-25T17:27:31.068Z,17.25
2022-07-25T17:29:58.889Z,14.80
2022-07-25T17:32:29.925Z,14.60
2022-07-25T17:34:58.296Z,15.43
2022-07-25T17:37:27.624Z,15.13
2022-07-25T17:39:55.515Z,12.35
2022-07-25T17:42:24.713Z,13.02
2022-07-25T17:44:53.111Z,12.68
2022-07-25T17:47:21.151Z,14.07
2022-07-25T17:49:50.885Z,12.45
2022-07-25T17:52:18.760Z,15.10
2022-07-25T17:54:46.483Z,13.57
2022-07-25T17:57:14.448Z,17.25
2022-07-25T17:59:43.685Z,16.67
2022-07-25T18:02:11.652Z,13.88
2022-07-25T18:04:39.463Z,17.52
2022-07-25T18:07:07.253Z,11.13
2022-07-25T18:09:35.042Z,15.73
2022-07-25T18:12:02.954Z,12.50
2022-07-25T18:14:31.369Z,16.40
2022-07-25T18:17:00.532Z,9.65
2022-07-25T18:19:28.309Z,12.00
2022-07-25T18:21:56.129Z,14.90
2022-07-25T18:24:28.829Z,15.18
2022-07-25T18:26:57.301Z,13.07
2022-07-25T18:29:25.242Z,16.73
2022-07-25T18:31:53.010Z,13.68
2022-07-25T18:34:22.144Z,11.68
2022-07-25T18:36:49.909Z,9.85
2022-07-25T18:39:17.699Z,13.75
2022-07-25T18:41:45.460Z,12.95
2022-07-25T18:44:13.298Z,14.55
2022-07-25T18:46:41.256Z,13.85
2022-07-25T18:49:09.160Z,13.23
2022-07-25T18:51:38.360Z,11.43
2022-07-25T18:54:07.425Z,11.60
2022-07-25T18:56:35.481Z,14.00
2022-07-25T18:59:03.613Z,14.18
2022-07-25T19:01:31.647Z,11.90
2022-07-25T19:03:59.422Z,10.38
2022-07-25T19:06:27.232Z,15.13
2022-07-25T19:08:56.342Z,12.80
2022-07-25T19:11:24.229Z,13.63
2022-07-25T19:13:51.927Z,10.63
2022-07-25T19:16:21.415Z,13.65
2022-07-25T19:18:49.167Z,13.50
2022-07-25T19:21:17.051Z,13.73
2022-07-25T19:23:50.481Z,12.27
2022-07-25T19:26:21.134Z,13.57
2022-07-25T19:28:50.111Z,15.52
2022-07-25T19:31:18.446Z,9.27
2022-07-25T19:33:46.936Z,11.75
2022-07-25T19:36:15.374Z,11.73
2022-07-25T19:38:43.273Z,9.25
2022-07-25T19:41:11.138Z,11.75
2022-07-25T19:43:40.257Z,13.45
2022-07-25T19:46:08.189Z,11.15
2022-07-25T19:48:36.145Z,10.75
2022-07-25T19:51:04.040Z,16.95
2022-07-25T19:53:33.187Z,10.68
2022-07-25T19:56:01.304Z,10.88
2022-07-25T19:58:29.404Z,13.90
2022-07-25T20:00:58.793Z,11.95
2022-07-25T20:03:27.025Z,13.93
2022-07-25T20:05:54.728Z,12.93
2022-07-25T20:08:22.447Z,10.20
2022-07-25T20:10:50.260Z,16.42
2022-07-25T20:13:18.023Z,10.68
2022-07-25T20:15:45.785Z,13.00
2022-07-25T20:18:19.298Z,14.60
2022-07-25T20:20:47.634Z,15.52
2022-07-25T20:23:15.562Z,14.68
2022-07-25T20:25:43.507Z,12.32
2022-07-25T20:28:11.330Z,13.13
2022-07-25T20:30:39.160Z,15.77
2022-07-25T20:33:09.000Z,12.75
2022-07-25T20:35:39.514Z,12.20
2022-07-25T20:38:09.643Z,12.20
2022-07-25T20:40:38.800Z,11.27
2022-07-25T20:43:09.097Z,12.80
2022-07-25T20:45:37.235Z,12.70
2022-07-25T20:48:05.606Z,12.13
2022-07-25T20:50:33.463Z,9.02
2022-07-25T20:53:02.568Z,8.52
2022-07-25T20:55:32.329Z,9.43
2022-07-25T20:58:00.452Z,11.32
2022-07-25T21:00:30.339Z,10.30
2022-07-25T21:02:59.007Z,10.70
2022-07-25T21:05:28.125Z,10.07
2022-07-25T21:07:56.130Z,10.38
2022-07-25T21:10:25.638Z,6.28
2022-07-25T21:12:55.893Z,8.60
2022-07-25T21:15:24.837Z,7.57
2022-07-25T21:17:52.699Z,7.03
2022-07-25T21:20:20.460Z,5.60
2022-07-25T21:22:48.278Z,6.03
2022-07-25T21:25:16.140Z,4.25
2022-07-25T21:27:45.312Z,5.07
2022-07-25T21:30:13.566Z,4.47
2022-07-25T21:32:41.728Z,3.33
2022-07-25T21:35:10.200Z,4.60
2022-07-25T21:37:37.938Z,3.05
2022-07-25T21:40:06.853Z,3.83
2022-07-25T21:42:35.846Z,4.65
2022-07-25T21:45:05.850Z,2.70
2022-07-25T21:47:33.581Z,5.38
2022-07-25T21:50:24.389Z,1.67
2022-07-25T21:52:53.351Z,2.83
2022-07-25T21:55:21.902Z,2.25
2022-07-25T21:57:51.189Z,2.80
2022-07-25T22:00:21.427Z,2.70
2022-07-25T22:02:49.545Z,2.95
2022-07-25T22:05:18.896Z,4.50
2022-07-25T22:07:47.237Z,3.60
2022-07-25T22:10:16.905Z,2.20
2022-07-25T22:12:44.947Z,3.78
2022-07-25T22:15:14.094Z,4.15
2022-07-25T22:17:49.205Z,3.53
2022-07-25T22:20:18.330Z,4.88
2022-07-25T22:22:47.119Z,5.50
2022-07-25T22:25:14.893Z,5.65
2022-07-25T22:27:42.817Z,2.03
2022-07-25T22:30:17.999Z,4.68
2022-07-25T22:32:48.712Z,3.90
2022-07-25T22:35:17.045Z,4.28
2022-07-25T22:37:44.992Z,4.00
2022-07-25T22:40:13.495Z,6.38
2022-07-25T22:42:41.421Z,3.35
2022-07-25T22:45:09.981Z,2.55
2022-07-25T22:47:37.744Z,4.75
2022-07-25T22:50:09.556Z,6.47
2022-07-25T22:55:05.692Z,6.22
2022-07-25T22:57:37.049Z,3.83
2022-07-25T23:02:34.660Z,2.42
2022-07-25T23:05:02.493Z,3.47
2022-07-25T23:07:31.643Z,4.40
2022-07-25T23:09:59.452Z,5.18
2022-07-25T23:12:27.335Z,7.00
2022-07-25T23:14:55.132Z,5.07
2022-07-25T23:17:24.645Z,7.85
2022-07-25T23:19:54.901Z,9.68
2022-07-25T23:22:25.239Z,7.32
2022-07-25T23:24:54.414Z,3.55
2022-07-25T23:27:23.698Z,4.90
2022-07-25T23:29:51.560Z,5.63
2022-07-25T23:32:19.334Z,4.03
2022-07-25T23:34:47.148Z,5.47
2022-07-25T23:37:14.962Z,7.82
2022-07-25T23:39:42.755Z,5.03
2022-07-25T23:42:11.996Z,5.90
2022-07-25T23:44:39.847Z,6.47
2022-07-25T23:47:10.270Z,4.35
2022-07-25T23:49:38.672Z,5.43
2022-07-25T23:52:06.788Z,6.78
2022-07-25T23:54:35.733Z,6.65
2022-07-25T23:57:03.637Z,5.38
2022-07-25T23:59:32.864Z,6.68
